sensor_id;sensor_type;location;lat;lon;timestamp;temperature;humidity
32173;DHT22;18679;45.190;5.722;2023-04-12T00:03:00;17.30;52.90
32173;DHT22;18679;45.190;5.722;2023-04-12T00:06:02;17.30;53.00
32173;DHT22;18679;45.190;5.722;2023-04-12T00:09:06;17.30;53.10
32173;DHT22;18679;45.190;5.722;2023-04-12T00:12:08;17.30;53.30
32173;DHT22;18679;45.190;5.722;2023-04-12T00:15:09;17.20;53.30
32173;DHT22;18679;45.190;5.722;2023-04-12T00:18:10;17.30;53.40
32173;DHT22;18679;45.190;5.722;2023-04-12T00:21:11;17.20;53.40
32173;DHT22;18679;45.190;5.722;2023-04-12T00:24:12;17.20;53.40
32173;DHT22;18679;45.190;5.722;2023-04-12T00:27:13;17.30;53.50
32173;DHT22;18679;45.190;5.722;2023-04-12T00:30:14;17.30;53.50
32173;DHT22;18679;45.190;5.722;2023-04-12T00:33:16;17.30;53.60
32173;DHT22;18679;45.190;5.722;2023-04-12T00:36:17;17.30;53.60
32173;DHT22;18679;45.190;5.722;2023-04-12T00:39:18;17.30;53.70
32173;DHT22;18679;45.190;5.722;2023-04-12T00:42:19;17.30;53.70
32173;DHT22;18679;45.190;5.722;2023-04-12T00:45:20;17.20;53.70
32173;DHT22;18679;45.190;5.722;2023-04-12T00:48:22;17.20;54.40
32173;DHT22;18679;45.190;5.722;2023-04-12T00:51:24;17.20;54.00
32173;DHT22;18679;45.190;5.722;2023-04-12T00:54:25;17.20;54.00
32173;DHT22;18679;45.190;5.722;2023-04-12T00:57:26;17.20;54.10
32173;DHT22;18679;45.190;5.722;2023-04-12T01:00:27;17.20;54.00
32173;DHT22;18679;45.190;5.722;2023-04-12T01:03:28;17.20;54.10
32173;DHT22;18679;45.190;5.722;2023-04-12T01:09:58;17.10;54.10
32173;DHT22;18679;45.190;5.722;2023-04-12T01:16:47;17.00;54.20
32173;DHT22;18679;45.190;5.722;2023-04-12T01:20:04;17.00;54.40
32173;DHT22;18679;45.190;5.722;2023-04-12T01:26:44;17.00;54.50
32173;DHT22;18679;45.190;5.722;2023-04-12T01:29:46;16.90;54.50
32173;DHT22;18679;45.190;5.722;2023-04-12T01:32:51;16.90;54.60
32173;DHT22;18679;45.190;5.722;2023-04-12T01:35:53;16.80;54.70
32173;DHT22;18679;45.190;5.722;2023-04-12T01:38:55;16.80;54.80
32173;DHT22;18679;45.190;5.722;2023-04-12T01:41:57;16.80;54.90
32173;DHT22;18679;45.190;5.722;2023-04-12T01:44:58;16.80;54.90
32173;DHT22;18679;45.190;5.722;2023-04-12T01:48:00;16.70;55.00
32173;DHT22;18679;45.190;5.722;2023-04-12T01:51:09;16.70;55.00
32173;DHT22;18679;45.190;5.722;2023-04-12T01:54:20;16.70;55.10
32173;DHT22;18679;45.190;5.722;2023-04-12T01:57:22;16.70;55.30
32173;DHT22;18679;45.190;5.722;2023-04-12T02:00:25;16.60;55.40
32173;DHT22;18679;45.190;5.722;2023-04-12T02:03:27;16.60;55.60
32173;DHT22;18679;45.190;5.722;2023-04-12T02:06:32;16.50;55.70
32173;DHT22;18679;45.190;5.722;2023-04-12T02:09:37;16.50;55.90
32173;DHT22;18679;45.190;5.722;2023-04-12T02:12:38;16.50;56.10
32173;DHT22;18679;45.190;5.722;2023-04-12T02:15:39;16.50;56.20
32173;DHT22;18679;45.190;5.722;2023-04-12T02:18:40;16.40;56.20
32173;DHT22;18679;45.190;5.722;2023-04-12T02:21:44;16.40;56.30
32173;DHT22;18679;45.190;5.722;2023-04-12T02:24:45;16.40;56.40
32173;DHT22;18679;45.190;5.722;2023-04-12T02:27:46;16.40;56.40
32173;DHT22;18679;45.190;5.722;2023-04-12T02:30:48;16.40;56.40
32173;DHT22;18679;45.190;5.722;2023-04-12T02:33:55;16.40;56.40
32173;DHT22;18679;45.190;5.722;2023-04-12T02:36:56;16.40;56.30
32173;DHT22;18679;45.190;5.722;2023-04-12T02:39:57;16.40;56.30
32173;DHT22;18679;45.190;5.722;2023-04-12T02:43:03;16.50;56.30
32173;DHT22;18679;45.190;5.722;2023-04-12T02:46:04;16.50;56.30
32173;DHT22;18679;45.190;5.722;2023-04-12T02:49:13;16.50;56.40
32173;DHT22;18679;45.190;5.722;2023-04-12T02:52:15;16.40;56.50
32173;DHT22;18679;45.190;5.722;2023-04-12T02:55:31;16.40;56.50
32173;DHT22;18679;45.190;5.722;2023-04-12T02:58:35;16.40;56.50
32173;DHT22;18679;45.190;5.722;2023-04-12T03:01:39;16.40;56.40
32173;DHT22;18679;45.190;5.722;2023-04-12T03:04:55;16.40;56.40
32173;DHT22;18679;45.190;5.722;2023-04-12T03:08:04;16.40;56.50
32173;DHT22;18679;45.190;5.722;2023-04-12T03:11:18;16.40;56.70
32173;DHT22;18679;45.190;5.722;2023-04-12T03:14:20;16.30;56.80
32173;DHT22;18679;45.190;5.722;2023-04-12T03:17:21;16.30;56.90
32173;DHT22;18679;45.190;5.722;2023-04-12T03:20:22;16.20;56.90
32173;DHT22;18679;45.190;5.722;2023-04-12T03:23:38;16.20;57.10
32173;DHT22;18679;45.190;5.722;2023-04-12T03:26:49;16.20;57.20
32173;DHT22;18679;45.190;5.722;2023-04-12T03:29:55;16.20;57.20
32173;DHT22;18679;45.190;5.722;2023-04-12T03:32:57;16.20;57.20
32173;DHT22;18679;45.190;5.722;2023-04-12T03:35:59;16.20;57.20
32173;DHT22;18679;45.190;5.722;2023-04-12T03:39:03;16.20;57.20
32173;DHT22;18679;45.190;5.722;2023-04-12T03:42:07;16.20;57.20
32173;DHT22;18679;45.190;5.722;2023-04-12T03:45:08;16.10;57.20
32173;DHT22;18679;45.190;5.722;2023-04-12T03:48:09;16.10;57.30
32173;DHT22;18679;45.190;5.722;2023-04-12T03:51:16;16.10;57.20
32173;DHT22;18679;45.190;5.722;2023-04-12T03:54:18;16.10;57.20
32173;DHT22;18679;45.190;5.722;2023-04-12T03:58:05;16.10;57.10
32173;DHT22;18679;45.190;5.722;2023-04-12T04:01:11;16.20;57.00
32173;DHT22;18679;45.190;5.722;2023-04-12T04:04:14;16.20;56.80
32173;DHT22;18679;45.190;5.722;2023-04-12T04:07:15;16.20;56.70
32173;DHT22;18679;45.190;5.722;2023-04-12T04:10:18;16.30;56.50
32173;DHT22;18679;45.190;5.722;2023-04-12T04:13:19;16.30;56.40
32173;DHT22;18679;45.190;5.722;2023-04-12T04:16:21;16.30;56.30
32173;DHT22;18679;45.190;5.722;2023-04-12T04:19:24;16.40;56.20
32173;DHT22;18679;45.190;5.722;2023-04-12T04:22:25;16.40;56.10
32173;DHT22;18679;45.190;5.722;2023-04-12T04:25:27;16.40;56.00
32173;DHT22;18679;45.190;5.722;2023-04-12T04:28:31;16.40;55.90
32173;DHT22;18679;45.190;5.722;2023-04-12T04:31:33;16.40;55.90
32173;DHT22;18679;45.190;5.722;2023-04-12T04:34:37;16.40;55.60
32173;DHT22;18679;45.190;5.722;2023-04-12T04:37:50;16.50;55.50
32173;DHT22;18679;45.190;5.722;2023-04-12T04:40:53;16.50;55.20
32173;DHT22;18679;45.190;5.722;2023-04-12T04:44:00;16.40;54.80
32173;DHT22;18679;45.190;5.722;2023-04-12T04:47:04;16.40;54.40
32173;DHT22;18679;45.190;5.722;2023-04-12T04:50:08;16.40;54.30
32173;DHT22;18679;45.190;5.722;2023-04-12T04:53:09;16.30;54.40
32173;DHT22;18679;45.190;5.722;2023-04-12T04:56:11;16.30;54.30
32173;DHT22;18679;45.190;5.722;2023-04-12T04:59:12;16.40;54.30
32173;DHT22;18679;45.190;5.722;2023-04-12T05:02:13;16.40;54.50
32173;DHT22;18679;45.190;5.722;2023-04-12T05:05:16;16.30;54.90
32173;DHT22;18679;45.190;5.722;2023-04-12T05:08:18;16.30;55.20
32173;DHT22;18679;45.190;5.722;2023-04-12T05:11:22;16.30;55.40
32173;DHT22;18679;45.190;5.722;2023-04-12T05:14:24;16.20;55.60
32173;DHT22;18679;45.190;5.722;2023-04-12T05:17:25;16.20;55.80
32173;DHT22;18679;45.190;5.722;2023-04-12T05:20:26;16.20;56.00
32173;DHT22;18679;45.190;5.722;2023-04-12T05:23:26;16.20;56.10
32173;DHT22;18679;45.190;5.722;2023-04-12T05:26:27;16.10;56.10
32173;DHT22;18679;45.190;5.722;2023-04-12T05:29:29;16.10;56.20
32173;DHT22;18679;45.190;5.722;2023-04-12T05:32:30;16.10;56.20
32173;DHT22;18679;45.190;5.722;2023-04-12T05:35:31;16.10;56.30
32173;DHT22;18679;45.190;5.722;2023-04-12T05:38:33;16.10;56.40
32173;DHT22;18679;45.190;5.722;2023-04-12T05:41:38;16.00;56.40
32173;DHT22;18679;45.190;5.722;2023-04-12T05:44:40;16.00;56.50
32173;DHT22;18679;45.190;5.722;2023-04-12T05:47:45;16.00;56.50
32173;DHT22;18679;45.190;5.722;2023-04-12T05:50:50;15.90;56.40
32173;DHT22;18679;45.190;5.722;2023-04-12T05:53:51;16.00;56.40
32173;DHT22;18679;45.190;5.722;2023-04-12T05:56:52;16.00;56.40
32173;DHT22;18679;45.190;5.722;2023-04-12T05:59:57;16.00;56.50
32173;DHT22;18679;45.190;5.722;2023-04-12T06:02:58;15.90;56.60
32173;DHT22;18679;45.190;5.722;2023-04-12T06:05:59;15.90;56.60
32173;DHT22;18679;45.190;5.722;2023-04-12T06:09:02;15.90;56.60
32173;DHT22;18679;45.190;5.722;2023-04-12T06:12:04;15.90;56.60
32173;DHT22;18679;45.190;5.722;2023-04-12T06:15:10;15.90;56.70
32173;DHT22;18679;45.190;5.722;2023-04-12T06:18:11;16.00;56.70
32173;DHT22;18679;45.190;5.722;2023-04-12T06:21:12;16.00;56.70
32173;DHT22;18679;45.190;5.722;2023-04-12T06:24:15;16.00;56.50
32173;DHT22;18679;45.190;5.722;2023-04-12T06:27:16;16.10;57.00
32173;DHT22;18679;45.190;5.722;2023-04-12T06:30:18;16.20;56.30
32173;DHT22;18679;45.190;5.722;2023-04-12T06:33:20;16.30;56.20
32173;DHT22;18679;45.190;5.722;2023-04-12T06:36:23;16.40;56.10
32173;DHT22;18679;45.190;5.722;2023-04-12T06:39:24;16.50;56.00
32173;DHT22;18679;45.190;5.722;2023-04-12T06:42:24;16.50;55.90
32173;DHT22;18679;45.190;5.722;2023-04-12T06:45:28;16.50;55.80
32173;DHT22;18679;45.190;5.722;2023-04-12T06:48:29;16.60;55.80
32173;DHT22;18679;45.190;5.722;2023-04-12T06:51:30;16.60;55.60
32173;DHT22;18679;45.190;5.722;2023-04-12T06:54:32;16.70;55.50
32173;DHT22;18679;45.190;5.722;2023-04-12T06:57:32;16.70;55.50
32173;DHT22;18679;45.190;5.722;2023-04-12T07:00:33;16.80;55.40
32173;DHT22;18679;45.190;5.722;2023-04-12T07:03:34;16.80;55.30
32173;DHT22;18679;45.190;5.722;2023-04-12T07:06:35;16.90;55.10
32173;DHT22;18679;45.190;5.722;2023-04-12T07:09:36;16.90;55.10
32173;DHT22;18679;45.190;5.722;2023-04-12T07:12:37;17.00;55.10
32173;DHT22;18679;45.190;5.722;2023-04-12T07:15:38;17.00;54.90
32173;DHT22;18679;45.190;5.722;2023-04-12T07:18:38;17.10;54.80
32173;DHT22;18679;45.190;5.722;2023-04-12T07:21:40;17.10;54.60
32173;DHT22;18679;45.190;5.722;2023-04-12T07:24:40;17.20;54.50
32173;DHT22;18679;45.190;5.722;2023-04-12T07:27:41;17.20;54.30
32173;DHT22;18679;45.190;5.722;2023-04-12T07:30:42;17.30;54.10
32173;DHT22;18679;45.190;5.722;2023-04-12T07:33:43;17.30;54.10
32173;DHT22;18679;45.190;5.722;2023-04-12T07:36:44;17.40;54.10
32173;DHT22;18679;45.190;5.722;2023-04-12T07:39:45;17.40;54.00
32173;DHT22;18679;45.190;5.722;2023-04-12T07:42:46;17.40;53.80
32173;DHT22;18679;45.190;5.722;2023-04-12T07:45:47;17.50;53.80
32173;DHT22;18679;45.190;5.722;2023-04-12T07:48:47;17.50;53.80
32173;DHT22;18679;45.190;5.722;2023-04-12T07:51:48;17.50;53.60
32173;DHT22;18679;45.190;5.722;2023-04-12T07:54:49;17.60;53.50
32173;DHT22;18679;45.190;5.722;2023-04-12T07:57:50;17.50;53.40
32173;DHT22;18679;45.190;5.722;2023-04-12T08:00:52;17.60;53.50
32173;DHT22;18679;45.190;5.722;2023-04-12T08:03:53;17.50;53.30
32173;DHT22;18679;45.190;5.722;2023-04-12T08:06:54;17.50;53.20
32173;DHT22;18679;45.190;5.722;2023-04-12T08:09:55;17.50;53.30
32173;DHT22;18679;45.190;5.722;2023-04-12T08:12:56;17.50;53.40
32173;DHT22;18679;45.190;5.722;2023-04-12T08:15:57;17.50;53.40
32173;DHT22;18679;45.190;5.722;2023-04-12T08:18:58;17.40;53.50
32173;DHT22;18679;45.190;5.722;2023-04-12T08:21:59;17.40;54.10
32173;DHT22;18679;45.190;5.722;2023-04-12T08:25:00;17.40;53.50
32173;DHT22;18679;45.190;5.722;2023-04-12T08:28:01;17.40;53.60
32173;DHT22;18679;45.190;5.722;2023-04-12T08:31:03;17.50;53.50
32173;DHT22;18679;45.190;5.722;2023-04-12T08:34:04;17.60;53.50
32173;DHT22;18679;45.190;5.722;2023-04-12T08:37:05;17.70;53.20
32173;DHT22;18679;45.190;5.722;2023-04-12T08:40:06;17.90;53.00
32173;DHT22;18679;45.190;5.722;2023-04-12T08:43:07;18.10;52.70
32173;DHT22;18679;45.190;5.722;2023-04-12T08:46:10;18.20;52.40
32173;DHT22;18679;45.190;5.722;2023-04-12T08:49:15;18.30;52.20
32173;DHT22;18679;45.190;5.722;2023-04-12T08:52:16;18.40;52.10
32173;DHT22;18679;45.190;5.722;2023-04-12T08:55:17;18.50;52.10
32173;DHT22;18679;45.190;5.722;2023-04-12T08:58:18;18.50;51.80
32173;DHT22;18679;45.190;5.722;2023-04-12T09:01:20;18.60;51.60
32173;DHT22;18679;45.190;5.722;2023-04-12T09:04:21;18.70;51.50
32173;DHT22;18679;45.190;5.722;2023-04-12T09:07:22;18.70;51.20
32173;DHT22;18679;45.190;5.722;2023-04-12T09:10:33;18.80;50.80
32173;DHT22;18679;45.190;5.722;2023-04-12T09:13:35;18.90;50.50
32173;DHT22;18679;45.190;5.722;2023-04-12T09:16:40;19.00;50.30
32173;DHT22;18679;45.190;5.722;2023-04-12T09:19:41;19.00;50.20
32173;DHT22;18679;45.190;5.722;2023-04-12T09:22:43;19.10;50.10
32173;DHT22;18679;45.190;5.722;2023-04-12T09:25:46;19.20;49.80
32173;DHT22;18679;45.190;5.722;2023-04-12T09:28:52;19.30;49.50
32173;DHT22;18679;45.190;5.722;2023-04-12T09:32:04;19.30;49.20
32173;DHT22;18679;45.190;5.722;2023-04-12T09:35:06;19.40;48.80
32173;DHT22;18679;45.190;5.722;2023-04-12T09:38:08;19.40;48.70
32173;DHT22;18679;45.190;5.722;2023-04-12T09:41:19;19.50;48.50
32173;DHT22;18679;45.190;5.722;2023-04-12T09:44:28;19.50;48.30
32173;DHT22;18679;45.190;5.722;2023-04-12T09:47:37;19.40;48.00
32173;DHT22;18679;45.190;5.722;2023-04-12T09:50:41;19.40;48.00
32173;DHT22;18679;45.190;5.722;2023-04-12T09:53:43;19.30;47.90
32173;DHT22;18679;45.190;5.722;2023-04-12T09:56:46;19.30;47.90
32173;DHT22;18679;45.190;5.722;2023-04-12T09:59:48;19.30;47.80
32173;DHT22;18679;45.190;5.722;2023-04-12T10:02:54;19.30;47.80
32173;DHT22;18679;45.190;5.722;2023-04-12T10:05:55;19.20;47.80
32173;DHT22;18679;45.190;5.722;2023-04-12T10:08:56;19.30;47.90
32173;DHT22;18679;45.190;5.722;2023-04-12T10:11:59;19.40;48.40
32173;DHT22;18679;45.190;5.722;2023-04-12T10:15:06;19.50;47.60
32173;DHT22;18679;45.190;5.722;2023-04-12T10:18:13;19.70;47.40
32173;DHT22;18679;45.190;5.722;2023-04-12T10:21:14;19.90;47.20
32173;DHT22;18679;45.190;5.722;2023-04-12T10:24:16;20.00;46.90
32173;DHT22;18679;45.190;5.722;2023-04-12T10:27:24;20.00;46.90
32173;DHT22;18679;45.190;5.722;2023-04-12T10:30:28;20.10;46.80
32173;DHT22;18679;45.190;5.722;2023-04-12T10:33:29;20.10;46.70
32173;DHT22;18679;45.190;5.722;2023-04-12T10:36:54;20.20;46.70
32173;DHT22;18679;45.190;5.722;2023-04-12T10:39:55;20.20;46.50
32173;DHT22;18679;45.190;5.722;2023-04-12T10:49:38;20.40;45.90
32173;DHT22;18679;45.190;5.722;2023-04-12T10:52:39;20.60;45.60
32173;DHT22;18679;45.190;5.722;2023-04-12T10:55:42;20.70;45.50
32173;DHT22;18679;45.190;5.722;2023-04-12T11:02:09;20.80;44.30
32173;DHT22;18679;45.190;5.722;2023-04-12T11:05:10;20.90;44.10
32173;DHT22;18679;45.190;5.722;2023-04-12T11:08:24;21.10;43.70
32173;DHT22;18679;45.190;5.722;2023-04-12T11:11:48;21.20;43.00
32173;DHT22;18679;45.190;5.722;2023-04-12T11:14:50;21.30;42.40
32173;DHT22;18679;45.190;5.722;2023-04-12T11:17:56;21.30;42.00
32173;DHT22;18679;45.190;5.722;2023-04-12T11:20:59;21.30;42.00
32173;DHT22;18679;45.190;5.722;2023-04-12T11:24:00;21.50;41.90
32173;DHT22;18679;45.190;5.722;2023-04-12T11:27:02;21.70;41.50
32173;DHT22;18679;45.190;5.722;2023-04-12T11:30:04;21.80;41.30
32173;DHT22;18679;45.190;5.722;2023-04-12T11:33:08;21.80;41.80
32173;DHT22;18679;45.190;5.722;2023-04-12T11:36:10;21.80;41.20
32173;DHT22;18679;45.190;5.722;2023-04-12T11:39:13;21.80;41.00
32173;DHT22;18679;45.190;5.722;2023-04-12T11:42:21;21.70;40.80
32173;DHT22;18679;45.190;5.722;2023-04-12T11:45:22;21.80;40.80
32173;DHT22;18679;45.190;5.722;2023-04-12T11:48:23;21.80;40.60
32173;DHT22;18679;45.190;5.722;2023-04-12T11:51:24;21.80;40.60
32173;DHT22;18679;45.190;5.722;2023-04-12T11:54:28;21.90;40.40
32173;DHT22;18679;45.190;5.722;2023-04-12T11:57:29;22.00;40.30
32173;DHT22;18679;45.190;5.722;2023-04-12T12:00:30;22.10;40.00
32173;DHT22;18679;45.190;5.722;2023-04-12T12:03:31;22.20;39.80
32173;DHT22;18679;45.190;5.722;2023-04-12T12:06:32;22.30;39.60
32173;DHT22;18679;45.190;5.722;2023-04-12T12:09:34;22.30;39.20
32173;DHT22;18679;45.190;5.722;2023-04-12T12:12:35;22.30;39.20
32173;DHT22;18679;45.190;5.722;2023-04-12T12:15:36;22.40;39.10
32173;DHT22;18679;45.190;5.722;2023-04-12T12:18:41;22.60;38.90
32173;DHT22;18679;45.190;5.722;2023-04-12T12:21:42;22.70;38.60
32173;DHT22;18679;45.190;5.722;2023-04-12T12:24:55;22.90;38.30
32173;DHT22;18679;45.190;5.722;2023-04-12T12:27:56;23.00;38.10
32173;DHT22;18679;45.190;5.722;2023-04-12T12:30:58;23.10;37.80
32173;DHT22;18679;45.190;5.722;2023-04-12T12:33:59;23.20;37.70
32173;DHT22;18679;45.190;5.722;2023-04-12T12:37:07;23.10;37.60
32173;DHT22;18679;45.190;5.722;2023-04-12T12:40:10;23.10;37.70
32173;DHT22;18679;45.190;5.722;2023-04-12T12:43:18;23.10;37.80
32173;DHT22;18679;45.190;5.722;2023-04-12T12:46:20;22.90;37.80
32173;DHT22;18679;45.190;5.722;2023-04-12T12:49:21;22.80;38.00
32173;DHT22;18679;45.190;5.722;2023-04-12T12:52:22;22.70;37.90
32173;DHT22;18679;45.190;5.722;2023-04-12T12:55:24;22.60;38.10
32173;DHT22;18679;45.190;5.722;2023-04-12T12:58:24;22.60;38.10
32173;DHT22;18679;45.190;5.722;2023-04-12T13:01:25;22.60;38.00
32173;DHT22;18679;45.190;5.722;2023-04-12T13:04:27;22.60;37.90
32173;DHT22;18679;45.190;5.722;2023-04-12T13:07:28;22.60;37.80
32173;DHT22;18679;45.190;5.722;2023-04-12T13:10:29;22.60;37.50
32173;DHT22;18679;45.190;5.722;2023-04-12T13:13:31;22.50;37.40
32173;DHT22;18679;45.190;5.722;2023-04-12T13:16:32;22.40;37.40
32173;DHT22;18679;45.190;5.722;2023-04-12T13:19:33;22.50;37.40
32173;DHT22;18679;45.190;5.722;2023-04-12T13:22:34;22.50;37.40
32173;DHT22;18679;45.190;5.722;2023-04-12T13:25:34;22.50;37.40
32173;DHT22;18679;45.190;5.722;2023-04-12T13:28:36;22.50;37.30
32173;DHT22;18679;45.190;5.722;2023-04-12T13:31:37;22.60;37.20
32173;DHT22;18679;45.190;5.722;2023-04-12T13:34:38;22.60;37.00
32173;DHT22;18679;45.190;5.722;2023-04-12T13:37:39;22.50;37.10
32173;DHT22;18679;45.190;5.722;2023-04-12T13:40:39;22.50;37.00
32173;DHT22;18679;45.190;5.722;2023-04-12T13:43:40;22.40;36.90
32173;DHT22;18679;45.190;5.722;2023-04-12T13:46:41;22.40;37.00
32173;DHT22;18679;45.190;5.722;2023-04-12T13:49:42;22.40;36.90
32173;DHT22;18679;45.190;5.722;2023-04-12T13:52:43;22.30;36.70
32173;DHT22;18679;45.190;5.722;2023-04-12T13:55:44;22.40;36.70
32173;DHT22;18679;45.190;5.722;2023-04-12T13:58:45;22.40;36.60
32173;DHT22;18679;45.190;5.722;2023-04-12T14:01:46;22.40;36.50
32173;DHT22;18679;45.190;5.722;2023-04-12T14:04:52;22.40;36.30
32173;DHT22;18679;45.190;5.722;2023-04-12T14:07:53;22.40;36.30
32173;DHT22;18679;45.190;5.722;2023-04-12T14:10:55;22.50;36.40
32173;DHT22;18679;45.190;5.722;2023-04-12T14:13:56;22.50;36.50
32173;DHT22;18679;45.190;5.722;2023-04-12T14:16:58;22.40;36.60
32173;DHT22;18679;45.190;5.722;2023-04-12T14:20:01;22.40;36.70
32173;DHT22;18679;45.190;5.722;2023-04-12T14:23:05;22.40;36.80
32173;DHT22;18679;45.190;5.722;2023-04-12T14:26:06;22.30;36.90
32173;DHT22;18679;45.190;5.722;2023-04-12T14:29:07;22.40;36.90
32173;DHT22;18679;45.190;5.722;2023-04-12T14:32:09;22.40;36.80
32173;DHT22;18679;45.190;5.722;2023-04-12T14:35:10;22.40;36.50
32173;DHT22;18679;45.190;5.722;2023-04-12T14:38:11;22.40;36.50
32173;DHT22;18679;45.190;5.722;2023-04-12T14:41:12;22.40;36.40
32173;DHT22;18679;45.190;5.722;2023-04-12T14:44:13;22.30;36.50
32173;DHT22;18679;45.190;5.722;2023-04-12T14:47:14;22.20;36.60
32173;DHT22;18679;45.190;5.722;2023-04-12T14:50:15;22.20;36.60
32173;DHT22;18679;45.190;5.722;2023-04-12T14:53:16;22.20;36.70
32173;DHT22;18679;45.190;5.722;2023-04-12T14:56:19;22.10;36.90
32173;DHT22;18679;45.190;5.722;2023-04-12T14:59:20;22.10;37.10
32173;DHT22;18679;45.190;5.722;2023-04-12T15:02:22;21.90;37.30
32173;DHT22;18679;45.190;5.722;2023-04-12T15:05:22;21.80;37.70
32173;DHT22;18679;45.190;5.722;2023-04-12T15:08:23;21.70;38.20
32173;DHT22;18679;45.190;5.722;2023-04-12T15:11:24;21.50;38.80
32173;DHT22;18679;45.190;5.722;2023-04-12T15:14:26;21.30;40.20
32173;DHT22;18679;45.190;5.722;2023-04-12T15:17:27;21.10;42.10
32173;DHT22;18679;45.190;5.722;2023-04-12T15:20:30;20.90;43.50
32173;DHT22;18679;45.190;5.722;2023-04-12T15:23:31;20.50;44.70
32173;DHT22;18679;45.190;5.722;2023-04-12T15:26:33;20.10;45.70
32173;DHT22;18679;45.190;5.722;2023-04-12T15:29:35;19.70;47.30
32173;DHT22;18679;45.190;5.722;2023-04-12T15:32:36;19.20;48.70
32173;DHT22;18679;45.190;5.722;2023-04-12T15:35:37;18.80;49.50
32173;DHT22;18679;45.190;5.722;2023-04-12T15:38:41;18.50;50.10
32173;DHT22;18679;45.190;5.722;2023-04-12T15:41:42;18.30;50.20
32173;DHT22;18679;45.190;5.722;2023-04-12T15:44:44;18.30;50.40
32173;DHT22;18679;45.190;5.722;2023-04-12T15:47:45;18.30;50.80
32173;DHT22;18679;45.190;5.722;2023-04-12T15:50:46;18.20;51.20
32173;DHT22;18679;45.190;5.722;2023-04-12T15:53:48;18.10;51.70
32173;DHT22;18679;45.190;5.722;2023-04-12T15:56:49;18.00;52.30
32173;DHT22;18679;45.190;5.722;2023-04-12T15:59:50;18.00;52.90
32173;DHT22;18679;45.190;5.722;2023-04-12T16:02:52;17.90;53.70
32173;DHT22;18679;45.190;5.722;2023-04-12T16:05:55;17.70;54.90
32173;DHT22;18679;45.190;5.722;2023-04-12T16:08:56;17.50;56.10
32173;DHT22;18679;45.190;5.722;2023-04-12T16:11:59;17.30;57.00
32173;DHT22;18679;45.190;5.722;2023-04-12T16:15:01;17.00;57.80
32173;DHT22;18679;45.190;5.722;2023-04-12T16:18:02;16.90;58.50
32173;DHT22;18679;45.190;5.722;2023-04-12T16:21:03;16.60;59.00
32173;DHT22;18679;45.190;5.722;2023-04-12T16:24:05;16.60;59.30
32173;DHT22;18679;45.190;5.722;2023-04-12T16:27:06;16.60;59.60
32173;DHT22;18679;45.190;5.722;2023-04-12T16:30:08;16.70;59.80
32173;DHT22;18679;45.190;5.722;2023-04-12T16:33:10;16.60;59.90
32173;DHT22;18679;45.190;5.722;2023-04-12T16:36:10;16.70;60.20
32173;DHT22;18679;45.190;5.722;2023-04-12T16:39:11;16.70;60.60
32173;DHT22;18679;45.190;5.722;2023-04-12T16:42:12;16.70;60.70
32173;DHT22;18679;45.190;5.722;2023-04-12T16:45:13;16.70;60.50
32173;DHT22;18679;45.190;5.722;2023-04-12T16:48:14;16.80;60.20
32173;DHT22;18679;45.190;5.722;2023-04-12T16:51:15;16.80;60.00
32173;DHT22;18679;45.190;5.722;2023-04-12T16:54:17;16.90;60.00
32173;DHT22;18679;45.190;5.722;2023-04-12T16:57:18;17.00;60.10
32173;DHT22;18679;45.190;5.722;2023-04-12T17:00:19;17.00;60.40
32173;DHT22;18679;45.190;5.722;2023-04-12T17:03:21;17.00;60.60
32173;DHT22;18679;45.190;5.722;2023-04-12T17:06:23;17.00;60.50
32173;DHT22;18679;45.190;5.722;2023-04-12T17:09:24;17.00;60.50
32173;DHT22;18679;45.190;5.722;2023-04-12T17:12:25;17.00;60.90
32173;DHT22;18679;45.190;5.722;2023-04-12T17:15:27;17.00;60.90
32173;DHT22;18679;45.190;5.722;2023-04-12T17:18:28;16.90;61.00
32173;DHT22;18679;45.190;5.722;2023-04-12T17:21:38;16.80;62.00
32173;DHT22;18679;45.190;5.722;2023-04-12T17:24:40;16.70;61.80
32173;DHT22;18679;45.190;5.722;2023-04-12T17:27:41;16.60;62.40
32173;DHT22;18679;45.190;5.722;2023-04-12T17:30:42;16.50;62.70
32173;DHT22;18679;45.190;5.722;2023-04-12T17:33:43;16.40;62.60
32173;DHT22;18679;45.190;5.722;2023-04-12T17:36:44;16.40;62.50
32173;DHT22;18679;45.190;5.722;2023-04-12T17:39:47;16.30;62.30
32173;DHT22;18679;45.190;5.722;2023-04-12T17:42:48;16.20;62.00
32173;DHT22;18679;45.190;5.722;2023-04-12T17:45:49;16.20;62.10
32173;DHT22;18679;45.190;5.722;2023-04-12T17:48:50;16.20;61.90
32173;DHT22;18679;45.190;5.722;2023-04-12T17:51:50;16.20;61.70
32173;DHT22;18679;45.190;5.722;2023-04-12T17:54:51;16.20;61.20
32173;DHT22;18679;45.190;5.722;2023-04-12T17:57:52;16.30;60.20
32173;DHT22;18679;45.190;5.722;2023-04-12T18:00:53;16.20;59.70
32173;DHT22;18679;45.190;5.722;2023-04-12T18:03:54;16.20;59.00
32173;DHT22;18679;45.190;5.722;2023-04-12T18:06:57;16.20;58.10
32173;DHT22;18679;45.190;5.722;2023-04-12T18:09:58;16.20;57.40
32173;DHT22;18679;45.190;5.722;2023-04-12T18:12:59;16.30;57.40
32173;DHT22;18679;45.190;5.722;2023-04-12T18:15:59;16.30;57.20
32173;DHT22;18679;45.190;5.722;2023-04-12T18:19:02;16.40;56.90
32173;DHT22;18679;45.190;5.722;2023-04-12T18:22:03;16.50;56.70
32173;DHT22;18679;45.190;5.722;2023-04-12T18:25:05;16.60;56.20
32173;DHT22;18679;45.190;5.722;2023-04-12T18:28:06;16.70;56.00
32173;DHT22;18679;45.190;5.722;2023-04-12T18:31:07;16.70;55.50
32173;DHT22;18679;45.190;5.722;2023-04-12T18:34:08;16.70;56.00
32173;DHT22;18679;45.190;5.722;2023-04-12T18:37:09;16.70;56.50
32173;DHT22;18679;45.190;5.722;2023-04-12T18:40:10;16.60;57.10
32173;DHT22;18679;45.190;5.722;2023-04-12T18:43:12;16.60;57.60
32173;DHT22;18679;45.190;5.722;2023-04-12T18:46:14;16.50;58.00
32173;DHT22;18679;45.190;5.722;2023-04-12T18:49:18;16.50;58.30
32173;DHT22;18679;45.190;5.722;2023-04-12T18:52:19;16.50;58.50
32173;DHT22;18679;45.190;5.722;2023-04-12T18:55:19;16.50;58.60
32173;DHT22;18679;45.190;5.722;2023-04-12T18:58:20;16.40;58.60
32173;DHT22;18679;45.190;5.722;2023-04-12T19:01:23;16.40;58.50
32173;DHT22;18679;45.190;5.722;2023-04-12T19:04:24;16.40;58.50
32173;DHT22;18679;45.190;5.722;2023-04-12T19:07:25;16.50;58.50
32173;DHT22;18679;45.190;5.722;2023-04-12T19:10:26;16.50;58.30
32173;DHT22;18679;45.190;5.722;2023-04-12T19:13:30;16.50;58.30
32173;DHT22;18679;45.190;5.722;2023-04-12T19:16:31;16.50;58.20
32173;DHT22;18679;45.190;5.722;2023-04-12T19:19:32;16.50;58.00
32173;DHT22;18679;45.190;5.722;2023-04-12T19:22:33;16.50;57.80
32173;DHT22;18679;45.190;5.722;2023-04-12T19:25:33;16.40;57.70
32173;DHT22;18679;45.190;5.722;2023-04-12T19:28:35;16.40;57.50
32173;DHT22;18679;45.190;5.722;2023-04-12T19:31:35;16.40;57.50
32173;DHT22;18679;45.190;5.722;2023-04-12T19:34:40;16.30;57.30